Time;durP1;ratioP1;P1;durP2;ratioP2;P2;SDS_P1;SDS_P2;PMS_P1;PMS_P2;Temp;Humidity;BMP_temperature;BMP_pressure;BME280_temperature;BME280_humidity;BME280_pressure;Samples;Min_cycle;Max_cycle;Signal;HPM_P1;HPM_P2
2022/04/04 00:02:09;;;;;;;;;43.75;39.25;;;;;;;;5123348;27;45303;-78
2022/04/04 00:04:34;;;;;;;;;52.50;43.00;;;;;;;;5123010;27;45310;-77
2022/04/04 00:07:02;;;;;;;;;59.50;49.00;;;;;;;;5121358;27;48182;-78
2022/04/04 00:09:27;;;;;;;;;66.50;54.75;;;;;;;;5121123;27;45645;-78
2022/04/04 00:11:53;;;;;;;;;87.25;70.50;;;;;;;;5123065;27;45423;-78
2022/04/04 00:14:18;;;;;;;;;82.50;66.50;;;;;;;;5123011;27;45830;-78
2022/04/04 00:16:43;;;;;;;;;75.00;60.25;;;;;;;;5102689;27;48173;-77
2022/04/04 00:19:08;;;;;;;;;58.50;47.75;;;;;;;;5102206;27;45396;-78
2022/04/04 00:21:33;;;;;;;;;59.00;46.50;;;;;;;;5100760;27;45334;-78
2022/04/04 00:23:59;;;;;;;;;56.00;46.75;;;;;;;;5101867;27;45316;-77
2022/04/04 00:26:24;;;;;;;;;59.75;48.00;;;;;;;;5100646;27;48019;-77
2022/04/04 00:28:49;;;;;;;;;47.75;40.00;;;;;;;;5101981;27;45296;-77
2022/04/04 00:31:15;;;;;;;;;50.75;43.50;;;;;;;;5102294;27;45511;-77
2022/04/04 00:33:41;;;;;;;;;45.50;40.25;;;;;;;;5101898;27;45382;-77
2022/04/04 00:36:07;;;;;;;;;44.25;40.25;;;;;;;;5101955;27;46474;-77
2022/04/04 00:38:32;;;;;;;;;44.75;40.25;;;;;;;;5101659;27;45210;-77
2022/04/04 00:40:57;;;;;;;;;50.00;42.00;;;;;;;;5101941;27;45191;-77
2022/04/04 00:43:22;;;;;;;;;42.75;38.75;;;;;;;;5101837;27;45496;-78
2022/04/04 00:45:49;;;;;;;;;51.25;41.00;;;;;;;;5101838;27;45207;-77
2022/04/04 00:48:14;;;;;;;;;50.50;43.25;;;;;;;;5100611;27;45261;-77
2022/04/04 00:50:39;;;;;;;;;50.50;42.00;;;;;;;;5100418;27;45164;-77
2022/04/04 00:53:07;;;;;;;;;60.50;47.00;;;;;;;;5101706;27;45203;-78
2022/04/04 00:55:32;;;;;;;;;52.25;45.50;;;;;;;;5102195;27;45340;-77
2022/04/04 00:57:58;;;;;;;;;53.25;44.50;;;;;;;;5101996;27;45391;-77
2022/04/04 01:00:24;;;;;;;;;54.00;44.25;;;;;;;;5100653;27;45435;-77
2022/04/04 01:02:49;;;;;;;;;54.00;43.75;;;;;;;;5101898;27;45463;-77
2022/04/04 01:05:14;;;;;;;;;55.75;46.50;;;;;;;;5101958;27;46214;-77
2022/04/04 01:07:40;;;;;;;;;46.75;41.50;;;;;;;;5097200;27;45316;-77
2022/04/04 01:10:06;;;;;;;;;49.25;42.25;;;;;;;;5090093;27;45269;-78
2022/04/04 01:12:32;;;;;;;;;43.25;39.00;;;;;;;;5079948;28;46271;-77
2022/04/04 01:14:57;;;;;;;;;38.50;37.00;;;;;;;;5087904;27;45291;-77
2022/04/04 01:17:24;;;;;;;;;49.50;43.75;;;;;;;;5120858;27;45225;-77
2022/04/04 01:19:49;;;;;;;;;41.50;38.50;;;;;;;;5122337;27;45356;-78
2022/04/04 01:22:15;;;;;;;;;46.50;41.00;;;;;;;;5119168;27;46089;-77
2022/04/04 01:24:40;;;;;;;;;53.25;44.50;;;;;;;;5122125;27;46213;-77
2022/04/04 01:27:07;;;;;;;;;46.25;42.25;;;;;;;;5121939;27;45364;-77
2022/04/04 01:29:32;;;;;;;;;52.25;44.25;;;;;;;;5121903;27;45284;-77
2022/04/04 01:31:58;;;;;;;;;54.25;44.25;;;;;;;;5121560;27;45617;-77
2022/04/04 01:34:23;;;;;;;;;53.50;44.25;;;;;;;;5120340;27;47082;-77
2022/04/04 01:36:49;;;;;;;;;59.50;46.75;;;;;;;;5121461;27;45384;-77
2022/04/04 01:39:14;;;;;;;;;54.75;46.25;;;;;;;;5121945;27;45314;-78
2022/04/04 01:41:40;;;;;;;;;46.75;41.00;;;;;;;;5121686;27;45323;-77
2022/04/04 01:44:05;;;;;;;;;48.00;43.00;;;;;;;;5121594;27;45247;-77
2022/04/04 01:46:30;;;;;;;;;55.75;45.00;;;;;;;;5121672;27;45237;-77
2022/04/04 01:48:57;;;;;;;;;51.25;44.00;;;;;;;;5121751;27;45197;-77
2022/04/04 01:51:22;;;;;;;;;53.00;44.25;;;;;;;;5121396;27;45163;-77
2022/04/04 01:53:48;;;;;;;;;53.75;46.75;;;;;;;;5119817;27;47315;-78
2022/04/04 01:56:13;;;;;;;;;45.25;40.75;;;;;;;;5121497;27;45224;-78
2022/04/04 01:58:39;;;;;;;;;48.50;43.75;;;;;;;;5121550;27;45501;-77
2022/04/04 02:01:11;;;;;;;;;48.50;42.75;;;;;;;;5121402;27;45408;-77
2022/04/04 02:03:37;;;;;;;;;57.75;43.75;;;;;;;;5120011;27;47141;-78
2022/04/04 02:06:02;;;;;;;;;43.00;39.25;;;;;;;;5121394;27;45221;-78
2022/04/04 02:08:28;;;;;;;;;52.25;45.75;;;;;;;;5121022;27;45716;-78
2022/04/04 02:10:53;;;;;;;;;54.75;45.25;;;;;;;;5121275;27;45455;-77
2022/04/04 02:13:19;;;;;;;;;50.00;44.50;;;;;;;;5119886;27;48304;-78
2022/04/04 02:15:44;;;;;;;;;51.25;42.75;;;;;;;;5110887;27;45635;-78
2022/04/04 02:18:09;;;;;;;;;45.00;40.25;;;;;;;;5100772;27;45336;-78
2022/04/04 02:20:35;;;;;;;;;47.50;42.50;;;;;;;;5100565;27;46718;-77
2022/04/04 02:23:00;;;;;;;;;42.00;39.50;;;;;;;;5100266;27;45499;-77
2022/04/04 02:25:26;;;;;;;;;48.25;42.25;;;;;;;;5099294;27;45576;-77
2022/04/04 02:27:51;;;;;;;;;48.00;40.00;;;;;;;;5100355;27;45473;-78
2022/04/04 02:30:16;;;;;;;;;48.25;40.50;;;;;;;;5100080;27;45472;-78
2022/04/04 02:32:41;;;;;;;;;49.00;43.25;;;;;;;;5099908;27;46302;-78
2022/04/04 02:35:07;;;;;;;;;50.50;43.25;;;;;;;;5100165;27;45381;-78
2022/04/04 02:37:32;;;;;;;;;53.50;41.50;;;;;;;;5100274;27;45440;-78
2022/04/04 02:39:57;;;;;;;;;40.25;37.50;;;;;;;;5100260;27;45699;-78
2022/04/04 02:42:23;;;;;;;;;51.50;43.00;;;;;;;;5100178;27;45278;-77
2022/04/04 02:44:48;;;;;;;;;42.00;38.00;;;;;;;;5098922;27;45445;-78
2022/04/04 02:47:13;;;;;;;;;46.50;40.00;;;;;;;;5098756;27;45471;-79
2022/04/04 02:49:38;;;;;;;;;50.50;40.50;;;;;;;;5099993;27;45417;-78
2022/04/04 02:52:04;;;;;;;;;47.75;42.00;;;;;;;;5099736;27;45348;-78
2022/04/04 02:54:29;;;;;;;;;48.50;42.25;;;;;;;;5100088;27;45334;-78
2022/04/04 02:56:54;;;;;;;;;47.25;41.50;;;;;;;;5100290;27;45306;-78
2022/04/04 02:59:20;;;;;;;;;51.00;41.75;;;;;;;;5099858;27;45286;-78
2022/04/04 03:01:48;;;;;;;;;47.75;41.00;;;;;;;;5098653;27;48669;-78
2022/04/04 03:04:17;;;;;;;;;50.75;41.50;;;;;;;;5100013;27;45280;-78
2022/04/04 03:06:42;;;;;;;;;49.50;43.00;;;;;;;;5098415;27;45351;-78
2022/04/04 03:09:07;;;;;;;;;47.50;43.00;;;;;;;;5099821;27;45365;-79
2022/04/04 03:11:33;;;;;;;;;48.75;40.75;;;;;;;;5098259;27;47758;-78
2022/04/04 03:13:58;;;;;;;;;44.25;40.50;;;;;;;;5099904;27;45325;-78
2022/04/04 03:16:23;;;;;;;;;50.75;43.50;;;;;;;;5114119;27;45416;-79
2022/04/04 03:18:48;;;;;;;;;42.25;39.75;;;;;;;;5119054;27;45974;-79
2022/04/04 03:21:13;;;;;;;;;46.25;41.00;;;;;;;;5118790;27;47029;-79
2022/04/04 03:23:39;;;;;;;;;47.50;38.50;;;;;;;;5119873;27;45389;-79
2022/04/04 03:26:05;;;;;;;;;54.50;44.75;;;;;;;;5120465;27;45303;-79
2022/04/04 03:28:30;;;;;;;;;47.00;41.50;;;;;;;;5120134;27;45598;-79
2022/04/04 03:30:56;;;;;;;;;46.50;42.50;;;;;;;;5119751;27;45264;-79
2022/04/04 03:33:21;;;;;;;;;52.75;45.00;;;;;;;;5120125;27;45283;-80
2022/04/04 03:35:47;;;;;;;;;50.50;43.25;;;;;;;;5120395;27;45256;-79
2022/04/04 03:38:13;;;;;;;;;38.00;35.75;;;;;;;;5119759;27;45160;-79
2022/04/04 03:40:39;;;;;;;;;48.50;42.25;;;;;;;;5120055;27;46004;-79
2022/04/04 03:43:04;;;;;;;;;47.00;41.00;;;;;;;;5118737;27;45264;-79
2022/04/04 03:45:30;;;;;;;;;44.00;39.75;;;;;;;;5121529;27;45342;-79
2022/04/04 03:47:56;;;;;;;;;51.50;39.25;;;;;;;;5123436;27;45413;-79
2022/04/04 03:50:21;;;;;;;;;39.00;36.00;;;;;;;;5122196;27;47295;-79
2022/04/04 03:52:48;;;;;;;;;38.75;38.25;;;;;;;;5123079;27;45327;-79
2022/04/04 03:55:14;;;;;;;;;42.00;38.00;;;;;;;;5123521;27;45307;-79
2022/04/04 03:57:40;;;;;;;;;44.75;39.50;;;;;;;;5123476;27;45387;-79
2022/04/04 04:00:06;;;;;;;;;44.75;39.75;;;;;;;;5121921;27;47965;-80
2022/04/04 04:02:33;;;;;;;;;39.00;37.50;;;;;;;;5123345;27;45230;-79
2022/04/04 04:04:58;;;;;;;;;51.75;40.75;;;;;;;;5122022;27;45413;-78
2022/04/04 04:07:25;;;;;;;;;45.50;39.50;;;;;;;;5123045;27;45469;-80
2022/04/04 04:09:51;;;;;;;;;38.25;37.25;;;;;;;;5123127;27;45317;-79
2022/04/04 04:12:16;;;;;;;;;48.50;40.50;;;;;;;;5123198;27;45366;-80
2022/04/04 04:14:41;;;;;;;;;43.25;39.25;;;;;;;;5122026;27;45368;-80
2022/04/04 04:17:08;;;;;;;;;42.50;38.00;;;;;;;;5102523;27;45357;-79
2022/04/04 04:22:19;;;;;;;;;44.50;39.00;;;;;;;;5101983;27;45286;-79
2022/04/04 04:24:45;;;;;;;;;40.25;38.25;;;;;;;;5102504;27;45235;-79
2022/04/04 04:27:10;;;;;;;;;43.00;39.25;;;;;;;;5102353;27;45322;-79
2022/04/04 04:29:35;;;;;;;;;41.75;36.75;;;;;;;;5102003;27;45296;-80
2022/04/04 04:32:00;;;;;;;;;37.25;37.25;;;;;;;;5100765;27;45234;-80
2022/04/04 04:34:26;;;;;;;;;38.25;37.00;;;;;;;;5102380;27;45203;-80
2022/04/04 04:36:51;;;;;;;;;38.00;35.25;;;;;;;;5101907;27;45563;-79
2022/04/04 04:39:17;;;;;;;;;37.75;33.75;;;;;;;;5102101;27;46128;-79
2022/04/04 04:41:45;;;;;;;;;31.75;31.75;;;;;;;;5100802;27;46170;-79
2022/04/04 04:44:10;;;;;;;;;35.25;33.25;;;;;;;;5102317;27;45386;-79
2022/04/04 04:46:36;;;;;;;;;30.50;29.25;;;;;;;;5100626;27;45948;-80
2022/04/04 04:49:01;;;;;;;;;36.00;36.00;;;;;;;;5101878;27;45357;-80
2022/04/04 04:51:26;;;;;;;;;36.75;36.25;;;;;;;;5101655;27;45499;-79
2022/04/04 04:53:52;;;;;;;;;30.25;29.75;;;;;;;;5102204;27;45881;-78
2022/04/04 04:56:17;;;;;;;;;32.00;31.75;;;;;;;;5093489;27;46141;-79
2022/04/04 04:58:42;;;;;;;;;32.00;30.75;;;;;;;;5095885;27;45297;-79
2022/04/04 05:01:07;;;;;;;;;34.75;31.75;;;;;;;;5090229;27;45451;-81
2022/04/04 05:03:33;;;;;;;;;27.50;26.25;;;;;;;;5087189;27;45626;-80
2022/04/04 05:05:58;;;;;;;;;31.75;29.50;;;;;;;;5081699;27;45333;-80
2022/04/04 05:08:24;;;;;;;;;27.00;25.50;;;;;;;;5080709;27;45301;-80
2022/04/04 05:10:50;;;;;;;;;26.50;24.00;;;;;;;;5081659;27;45325;-80
2022/04/04 05:13:17;;;;;;;;;24.00;23.25;;;;;;;;5081273;27;45334;-80
2022/04/04 05:15:44;;;;;;;;;21.00;21.00;;;;;;;;5099336;27;45780;-80
2022/04/04 05:18:09;;;;;;;;;22.50;22.50;;;;;;;;5122032;27;45955;-79
2022/04/04 05:20:34;;;;;;;;;25.00;22.50;;;;;;;;5122164;27;45324;-81
2022/04/04 05:22:59;;;;;;;;;28.00;23.75;;;;;;;;5121990;27;45376;-81
2022/04/04 05:25:25;;;;;;;;;21.75;20.50;;;;;;;;5122138;27;45328;-78
2022/04/04 05:27:55;;;;;;;;;28.75;25.50;;;;;;;;5121732;27;46340;-79
2022/04/04 05:30:20;;;;;;;;;25.75;21.50;;;;;;;;5121632;27;45317;-79
2022/04/04 05:32:46;;;;;;;;;28.50;27.50;;;;;;;;5121902;27;45208;-80
2022/04/04 05:35:15;;;;;;;;;26.50;23.50;;;;;;;;5121861;27;45168;-79
2022/04/04 05:37:41;;;;;;;;;29.25;26.00;;;;;;;;5121582;27;45357;-79
2022/04/04 05:40:06;;;;;;;;;24.25;24.00;;;;;;;;5120325;27;45384;-79
2022/04/04 05:42:32;;;;;;;;;23.75;23.00;;;;;;;;5121801;27;45364;-80
2022/04/04 05:44:57;;;;;;;;;30.00;25.50;;;;;;;;5121681;27;45301;-79
2022/04/04 05:47:22;;;;;;;;;23.75;23.75;;;;;;;;5120113;27;48373;-79
2022/04/04 05:49:50;;;;;;;;;28.75;26.25;;;;;;;;5121557;27;45274;-78
2022/04/04 05:52:16;;;;;;;;;29.25;28.00;;;;;;;;5121336;27;45287;-77
2022/04/04 05:54:54;;;;;;;;;28.00;27.75;;;;;;;;5121431;27;45234;-78
2022/04/04 05:57:23;;;;;;;;;28.25;27.50;;;;;;;;5093078;27;46296;-79
2022/04/04 05:59:48;;;;;;;;;21.50;21.50;;;;;;;;5080160;27;45293;-77
2022/04/04 06:02:13;;;;;;;;;29.00;26.00;;;;;;;;5080375;28;45305;-77
2022/04/04 06:04:38;;;;;;;;;29.50;29.00;;;;;;;;5079044;28;47257;-77
2022/04/04 06:07:04;;;;;;;;;31.50;31.00;;;;;;;;5078458;28;47458;-77
2022/04/04 06:09:29;;;;;;;;;25.00;24.50;;;;;;;;5061155;28;45788;-77
2022/04/04 06:11:54;;;;;;;;;32.50;28.75;;;;;;;;5078992;28;45384;-77
2022/04/04 06:14:19;;;;;;;;;33.00;29.50;;;;;;;;5080163;27;45275;-77
2022/04/04 06:16:44;;;;;;;;;31.50;28.75;;;;;;;;5117281;27;45406;-77
2022/04/04 06:19:10;;;;;;;;;33.25;28.75;;;;;;;;5121098;27;45284;-77
2022/04/04 06:21:36;;;;;;;;;29.75;27.25;;;;;;;;5119462;27;45279;-77
2022/04/04 06:24:02;;;;;;;;;33.50;32.50;;;;;;;;5120986;27;45465;-77
2022/04/04 06:26:28;;;;;;;;;32.25;30.25;;;;;;;;5081322;27;47428;-77
2022/04/04 06:28:54;;;;;;;;;33.00;32.00;;;;;;;;5079056;27;45318;-77
2022/04/04 06:31:19;;;;;;;;;32.50;31.50;;;;;;;;5079654;27;45339;-78
2022/04/04 06:33:45;;;;;;;;;31.00;29.75;;;;;;;;5078498;28;47241;-77
2022/04/04 06:36:10;;;;;;;;;34.00;32.75;;;;;;;;5079890;27;45490;-77
2022/04/04 06:38:36;;;;;;;;;36.00;34.00;;;;;;;;5078133;28;45380;-77
2022/04/04 06:41:01;;;;;;;;;38.75;36.50;;;;;;;;5079900;27;45345;-77
2022/04/04 06:43:27;;;;;;;;;36.25;34.50;;;;;;;;5079751;28;45313;-77
2022/04/04 06:45:52;;;;;;;;;36.25;35.50;;;;;;;;5078117;28;47984;-77
2022/04/04 06:48:17;;;;;;;;;42.50;39.00;;;;;;;;5079574;27;45255;-77
2022/04/04 06:50:42;;;;;;;;;44.50;39.00;;;;;;;;5078283;28;45265;-78
2022/04/04 06:53:08;;;;;;;;;37.25;35.50;;;;;;;;5077940;28;46214;-78
2022/04/04 06:55:33;;;;;;;;;42.00;38.25;;;;;;;;5083170;27;48003;-78
2022/04/04 06:57:58;;;;;;;;;46.25;37.00;;;;;;;;5084569;27;45448;-78
2022/04/04 07:00:23;;;;;;;;;32.00;32.00;;;;;;;;5078900;27;45443;-77
2022/04/04 07:02:49;;;;;;;;;44.75;40.00;;;;;;;;5079437;27;45302;-78
2022/04/04 07:05:14;;;;;;;;;41.00;38.00;;;;;;;;5079297;28;45681;-78
2022/04/04 07:07:39;;;;;;;;;37.50;35.75;;;;;;;;5077331;28;45315;-78
2022/04/04 07:10:05;;;;;;;;;46.00;38.75;;;;;;;;5080311;28;45359;-77
2022/04/04 07:12:30;;;;;;;;;49.25;41.50;;;;;;;;5080986;27;45460;-75
2022/04/04 07:14:55;;;;;;;;;54.75;44.50;;;;;;;;5085135;27;45371;-75
2022/04/04 07:17:21;;;;;;;;;53.00;44.75;;;;;;;;5120178;27;45279;-75
2022/04/04 07:19:46;;;;;;;;;43.00;38.75;;;;;;;;5119332;27;45329;-75
2022/04/04 07:22:11;;;;;;;;;41.25;38.25;;;;;;;;5121990;27;46902;-75
2022/04/04 07:24:36;;;;;;;;;35.75;33.50;;;;;;;;5123876;27;45373;-74
2022/04/04 07:27:03;;;;;;;;;34.25;30.00;;;;;;;;5122329;27;45273;-74
2022/04/04 07:29:28;;;;;;;;;21.00;15.00;;;;;;;;5122578;27;45379;-74
2022/04/04 07:31:54;;;;;;;;;14.75;14.75;;;;;;;;5123238;27;45393;-74
2022/04/04 07:34:19;;;;;;;;;13.75;12.75;;;;;;;;5123666;27;45334;-74
2022/04/04 07:36:44;;;;;;;;;18.50;18.25;;;;;;;;5095659;27;45436;-73
2022/04/04 07:39:09;;;;;;;;;16.00;16.00;;;;;;;;5082539;27;45190;-75
2022/04/04 07:41:35;;;;;;;;;16.00;14.50;;;;;;;;5082472;28;45474;-75
2022/04/04 07:44:00;;;;;;;;;18.50;16.75;;;;;;;;5082521;28;46458;-74
2022/04/04 07:46:26;;;;;;;;;17.50;16.50;;;;;;;;5083364;27;45759;-75
2022/04/04 07:48:55;;;;;;;;;16.75;16.50;;;;;;;;5088326;27;45364;-74
2022/04/04 07:51:20;;;;;;;;;20.25;19.25;;;;;;;;5086237;27;45357;-75
2022/04/04 07:53:46;;;;;;;;;17.25;14.25;;;;;;;;5089273;27;45383;-75
2022/04/04 07:56:11;;;;;;;;;18.00;16.25;;;;;;;;5102515;27;45330;-73
2022/04/04 07:58:36;;;;;;;;;17.00;17.00;;;;;;;;5102425;27;45309;-74
2022/04/04 08:01:02;;;;;;;;;16.50;16.25;;;;;;;;5089685;27;45812;-74
2022/04/04 08:03:27;;;;;;;;;18.00;16.75;;;;;;;;5096382;27;48473;-74
2022/04/04 08:05:54;;;;;;;;;18.00;18.00;;;;;;;;5101380;27;45329;-74
2022/04/04 08:08:19;;;;;;;;;17.00;15.75;;;;;;;;5100466;27;45376;-75
2022/04/04 08:10:44;;;;;;;;;17.25;16.50;;;;;;;;5102406;27;45291;-74
2022/04/04 08:13:09;;;;;;;;;16.75;16.75;;;;;;;;5089049;27;45987;-75
2022/04/04 08:15:35;;;;;;;;;16.00;14.50;;;;;;;;5099119;27;45413;-75
2022/04/04 08:18:00;;;;;;;;;19.25;19.25;;;;;;;;5100227;27;45402;-75
2022/04/04 08:20:26;;;;;;;;;14.00;14.00;;;;;;;;5088204;27;45877;-75
2022/04/04 08:22:51;;;;;;;;;16.00;14.00;;;;;;;;5095621;27;47187;-77
2022/04/04 08:25:17;;;;;;;;;15.00;14.50;;;;;;;;5086200;27;45434;-74
2022/04/04 08:27:43;;;;;;;;;15.00;13.75;;;;;;;;5102065;27;45503;-74
2022/04/04 08:30:10;;;;;;;;;16.25;16.25;;;;;;;;5086098;27;46463;-75
2022/04/04 08:32:39;;;;;;;;;14.00;14.00;;;;;;;;5080211;27;48297;-76
2022/04/04 08:35:06;;;;;;;;;15.50;15.00;;;;;;;;5099099;27;45361;-75
2022/04/04 08:37:33;;;;;;;;;18.00;16.00;;;;;;;;5101777;27;45717;-75
2022/04/04 08:39:58;;;;;;;;;16.00;14.25;;;;;;;;5101754;27;45486;-74
2022/04/04 08:42:26;;;;;;;;;14.00;12.00;;;;;;;;5101700;27;45297;-74
2022/04/04 08:44:53;;;;;;;;;12.33;11.67;;;;;;;;5101828;27;45266;-75
2022/04/04 08:47:19;;;;;;;;;11.33;11.00;;;;;;;;5101146;27;45307;-76
2022/04/04 08:49:44;;;;;;;;;11.00;8.33;;;;;;;;5101431;27;45175;-75
2022/04/04 08:52:09;;;;;;;;;11.33;11.33;;;;;;;;5100142;27;48169;-75
2022/04/04 08:54:35;;;;;;;;;13.67;13.33;;;;;;;;5100060;27;45258;-75
2022/04/04 08:57:00;;;;;;;;;13.00;12.33;;;;;;;;5100489;27;45297;-76
2022/04/04 08:59:26;;;;;;;;;8.00;8.00;;;;;;;;5098262;27;45562;-75
2022/04/04 09:01:51;;;;;;;;;11.67;11.67;;;;;;;;5099568;27;45310;-75
2022/04/04 09:04:16;;;;;;;;;11.00;11.00;;;;;;;;5091657;27;45268;-74
2022/04/04 09:06:50;;;;;;;;;4.67;4.67;;;;;;;;5080399;27;45368;-75
2022/04/04 09:09:19;;;;;;;;;5.00;5.00;;;;;;;;5080429;27;45755;-75
2022/04/04 09:12:05;;;;;;;;;6.00;5.00;;;;;;;;5080214;27;45511;-76
2022/04/04 09:14:34;;;;;;;;;6.67;4.33;;;;;;;;5080758;27;45361;-74
2022/04/04 09:16:59;;;;;;;;;5.00;5.00;;;;;;;;5085693;27;45323;-76
2022/04/04 09:19:30;;;;;;;;;5.00;5.00;;;;;;;;5096292;27;45918;-74
2022/04/04 09:21:56;;;;;;;;;5.00;5.00;;;;;;;;5080998;27;45476;-74
2022/04/04 09:24:21;;;;;;;;;6.00;6.00;;;;;;;;5081325;27;45332;-74
2022/04/04 09:26:48;;;;;;;;;4.00;4.00;;;;;;;;5080349;27;45263;-75
2022/04/04 09:29:14;;;;;;;;;4.33;4.33;;;;;;;;5080837;27;45325;-74
2022/04/04 09:31:59;;;;;;;;;6.67;5.00;;;;;;;;5080127;27;45348;-74
2022/04/04 09:34:24;;;;;;;;;5.33;5.33;;;;;;;;5080717;27;45292;-73
2022/04/04 09:36:50;;;;;;;;;6.33;6.33;;;;;;;;5080362;27;45290;-74
2022/04/04 09:39:15;;;;;;;;;6.00;5.00;;;;;;;;5080469;27;45494;-75
2022/04/04 09:41:42;;;;;;;;;5.00;5.00;;;;;;;;5080331;27;46298;-74
2022/04/04 09:44:14;;;;;;;;;7.00;7.00;;;;;;;;5079432;28;45318;-74
2022/04/04 09:46:40;;;;;;;;;8.00;8.00;;;;;;;;5078923;28;45236;-75
2022/04/04 09:49:16;;;;;;;;;6.33;5.33;;;;;;;;5079748;27;45277;-73
2022/04/04 09:51:41;;;;;;;;;7.67;4.67;;;;;;;;5077367;27;46233;-74
2022/04/04 09:54:11;;;;;;;;;5.00;4.00;;;;;;;;5091903;27;45411;-73
2022/04/04 09:56:37;;;;;;;;;7.33;7.00;;;;;;;;5088500;27;45310;-74
2022/04/04 09:59:02;;;;;;;;;6.33;5.33;;;;;;;;5084015;27;45302;-74
2022/04/04 10:01:29;;;;;;;;;7.33;6.67;;;;;;;;5089775;27;46281;-75
2022/04/04 10:03:55;;;;;;;;;7.00;6.33;;;;;;;;5096949;27;45736;-74
2022/04/04 10:06:22;;;;;;;;;7.00;6.67;;;;;;;;5098287;27;45435;-73
2022/04/04 10:08:51;;;;;;;;;5.00;5.00;;;;;;;;5098250;27;45884;-74
2022/04/04 10:11:17;;;;;;;;;5.67;5.67;;;;;;;;5098739;27;46446;-74
2022/04/04 10:13:43;;;;;;;;;6.00;6.00;;;;;;;;5100220;27;45467;-75
2022/04/04 10:16:09;;;;;;;;;7.00;7.00;;;;;;;;5112364;27;45480;-76
2022/04/04 10:18:37;;;;;;;;;5.00;5.00;;;;;;;;5120668;27;45473;-74
2022/04/04 10:21:02;;;;;;;;;9.33;9.00;;;;;;;;5120573;27;45633;-76
2022/04/04 10:23:27;;;;;;;;;10.00;8.00;;;;;;;;5120003;27;45298;-76
2022/04/04 10:25:54;;;;;;;;;6.00;5.33;;;;;;;;5121274;27;45291;-74
2022/04/04 10:28:29;;;;;;;;;5.00;5.00;;;;;;;;5120995;27;45350;-74
2022/04/04 10:30:59;;;;;;;;;6.67;6.00;;;;;;;;5120697;27;46162;-74
2022/04/04 10:33:24;;;;;;;;;6.00;6.00;;;;;;;;5120827;27;45322;-74
2022/04/04 10:36:00;;;;;;;;;6.67;6.00;;;;;;;;5085043;27;45366;-75
2022/04/04 10:38:29;;;;;;;;;7.00;7.00;;;;;;;;5078918;27;45527;-73
2022/04/04 10:40:55;;;;;;;;;4.00;4.00;;;;;;;;5079806;27;45420;-74
2022/04/04 10:43:21;;;;;;;;;6.00;6.00;;;;;;;;5078161;27;45329;-77
2022/04/04 10:46:02;;;;;;;;;5.00;5.00;;;;;;;;5079741;28;45213;-75
2022/04/04 10:48:31;;;;;;;;;9.33;7.33;;;;;;;;5079487;27;45558;-75
2022/04/04 10:51:09;;;;;;;;;7.00;6.00;;;;;;;;5079549;27;45627;-73
2022/04/04 10:53:37;;;;;;;;;5.33;5.33;;;;;;;;5079600;27;45297;-73
2022/04/04 10:56:03;;;;;;;;;7.00;7.00;;;;;;;;5087749;27;45962;-73
2022/04/04 10:58:29;;;;;;;;;7.00;7.00;;;;;;;;5103498;27;45617;-74
2022/04/04 11:01:04;;;;;;;;;6.00;6.00;;;;;;;;5103458;27;45440;-73
2022/04/04 11:03:30;;;;;;;;;5.33;5.33;;;;;;;;5101827;27;45356;-74
2022/04/04 11:08:58;;;;;;;;;7.00;7.00;;;;;;;;5103196;27;45328;-73
2022/04/04 11:11:39;;;;;;;;;7.33;7.33;;;;;;;;5101576;27;47158;-73
2022/04/04 11:14:05;;;;;;;;;6.00;6.00;;;;;;;;5103397;27;45242;-74
2022/04/04 11:16:49;;;;;;;;;6.67;6.67;;;;;;;;5119383;27;45211;-74
2022/04/04 11:19:18;;;;;;;;;7.33;7.33;;;;;;;;5123891;27;45493;-73
2022/04/04 11:21:43;;;;;;;;;6.00;6.00;;;;;;;;5123630;27;45393;-74
2022/04/04 11:24:09;;;;;;;;;7.00;6.33;;;;;;;;5123856;27;45327;-74
2022/04/04 11:26:35;;;;;;;;;6.33;5.33;;;;;;;;5122788;27;45344;-74
2022/04/04 11:29:00;;;;;;;;;6.33;6.33;;;;;;;;5123696;27;45438;-72
2022/04/04 11:31:26;;;;;;;;;6.00;6.00;;;;;;;;5122063;27;48117;-74
2022/04/04 11:34:00;;;;;;;;;6.00;6.00;;;;;;;;5101451;27;45377;-74
2022/04/04 11:36:27;;;;;;;;;4.67;4.67;;;;;;;;5102932;27;45414;-73
2022/04/04 11:38:56;;;;;;;;;5.33;4.00;;;;;;;;5102381;27;45460;-74
2022/04/04 11:41:24;;;;;;;;;4.00;4.00;;;;;;;;5102782;27;45320;-74
2022/04/04 11:43:52;;;;;;;;;4.00;4.00;;;;;;;;5102102;27;45374;-74
2022/04/04 11:46:19;;;;;;;;;5.33;5.33;;;;;;;;5102913;27;45325;-73
2022/04/04 11:48:49;;;;;;;;;5.33;5.33;;;;;;;;5101393;27;46179;-74
2022/04/04 11:51:14;;;;;;;;;6.67;6.67;;;;;;;;5102397;27;45415;-73
2022/04/04 11:53:39;;;;;;;;;5.00;5.00;;;;;;;;5102648;27;45398;-73
2022/04/04 11:56:10;;;;;;;;;5.67;4.33;;;;;;;;5101599;27;45532;-73
2022/04/04 11:58:45;;;;;;;;;4.00;4.00;;;;;;;;5102866;27;45231;-73
2022/04/04 12:01:11;;;;;;;;;6.33;6.33;;;;;;;;5101622;27;45329;-74
2022/04/04 12:03:43;;;;;;;;;5.00;5.00;;;;;;;;5102389;27;45520;-75
2022/04/04 12:06:08;;;;;;;;;5.00;4.00;;;;;;;;5100161;27;45310;-75
2022/04/04 12:08:35;;;;;;;;;4.33;4.33;;;;;;;;5102305;27;45440;-74
2022/04/04 12:11:00;;;;;;;;;6.67;5.00;;;;;;;;5102319;27;45513;-74
2022/04/04 12:13:26;;;;;;;;;6.00;6.00;;;;;;;;5102413;27;45332;-75
2022/04/04 12:15:53;;;;;;;;;7.00;6.00;;;;;;;;5113273;27;45460;-74
2022/04/04 12:18:28;;;;;;;;;8.00;6.67;;;;;;;;5122413;27;45419;-74
2022/04/04 12:20:55;;;;;;;;;6.00;5.00;;;;;;;;5122493;27;45454;-73
2022/04/04 12:26:07;;;;;;;;;6.00;6.00;;;;;;;;5122476;27;45395;-75
2022/04/04 12:28:33;;;;;;;;;5.67;5.67;;;;;;;;5122266;27;45563;-75
2022/04/04 12:31:11;;;;;;;;;5.00;5.00;;;;;;;;5122345;27;45420;-73
2022/04/04 12:33:36;;;;;;;;;7.00;7.00;;;;;;;;5122818;27;45344;-74
2022/04/04 12:36:02;;;;;;;;;5.00;5.00;;;;;;;;5121320;27;45341;-74
2022/04/04 12:38:28;;;;;;;;;4.00;4.00;;;;;;;;5122752;27;45416;-74
2022/04/04 12:41:00;;;;;;;;;6.33;5.67;;;;;;;;5121300;27;47421;-74
2022/04/04 12:43:26;;;;;;;;;5.00;5.00;;;;;;;;5122730;27;45273;-74
2022/04/04 12:45:51;;;;;;;;;5.67;5.67;;;;;;;;5121333;27;45331;-75
2022/04/04 12:48:16;;;;;;;;;7.00;7.00;;;;;;;;5121256;27;47110;-74
2022/04/04 12:50:48;;;;;;;;;8.00;7.00;;;;;;;;5109086;27;46308;-75
2022/04/04 12:53:14;;;;;;;;;5.00;5.00;;;;;;;;5096440;27;45400;-74
2022/04/04 12:55:43;;;;;;;;;4.67;4.67;;;;;;;;5099772;27;45720;-74
2022/04/04 12:58:15;;;;;;;;;8.00;6.00;;;;;;;;5101551;27;45471;-73
2022/04/04 13:00:40;;;;;;;;;7.00;7.00;;;;;;;;5101512;27;45277;-74
2022/04/04 13:03:29;;;;;;;;;6.00;6.00;;;;;;;;5100153;27;45528;-75
2022/04/04 13:05:55;;;;;;;;;8.33;6.33;;;;;;;;5098569;27;45333;-75
2022/04/04 13:08:24;;;;;;;;;4.00;4.00;;;;;;;;5100721;27;45373;-74
2022/04/04 13:11:03;;;;;;;;;6.00;5.33;;;;;;;;5100128;27;48006;-75
2022/04/04 13:13:29;;;;;;;;;6.00;6.00;;;;;;;;5101355;27;45360;-74
2022/04/04 13:15:55;;;;;;;;;5.33;5.33;;;;;;;;5113057;27;45601;-75
2022/04/04 13:18:20;;;;;;;;;7.00;6.00;;;;;;;;5121750;27;45310;-75
2022/04/04 13:20:45;;;;;;;;;7.33;7.33;;;;;;;;5121977;27;45255;-76
2022/04/04 13:23:10;;;;;;;;;6.67;6.67;;;;;;;;5121586;27;45324;-75
2022/04/04 13:25:36;;;;;;;;;6.00;5.67;;;;;;;;5122164;27;45712;-76
2022/04/04 13:28:01;;;;;;;;;8.33;8.00;;;;;;;;5107403;27;46382;-74
2022/04/04 13:30:26;;;;;;;;;7.00;7.00;;;;;;;;5099507;27;47065;-75
2022/04/04 13:32:51;;;;;;;;;6.67;6.67;;;;;;;;5101181;27;45380;-75
2022/04/04 13:35:17;;;;;;;;;7.00;7.00;;;;;;;;5099834;27;45306;-75
2022/04/04 13:37:43;;;;;;;;;8.00;8.00;;;;;;;;5100589;27;45444;-75
2022/04/04 13:40:09;;;;;;;;;8.00;8.00;;;;;;;;5099594;27;47451;-74
2022/04/04 13:42:34;;;;;;;;;7.33;6.33;;;;;;;;5101132;27;45238;-76
2022/04/04 13:45:00;;;;;;;;;7.33;7.33;;;;;;;;5101159;27;45194;-74
2022/04/04 13:47:25;;;;;;;;;7.33;7.33;;;;;;;;5099639;27;46979;-75
2022/04/04 13:49:50;;;;;;;;;9.67;7.00;;;;;;;;5100640;27;45143;-74
2022/04/04 13:52:16;;;;;;;;;9.00;8.00;;;;;;;;5100679;27;45265;-75
2022/04/04 13:54:42;;;;;;;;;8.67;8.67;;;;;;;;5101042;27;45391;-75
2022/04/04 13:57:08;;;;;;;;;10.33;10.33;;;;;;;;5100809;27;45483;-75
2022/04/04 13:59:34;;;;;;;;;5.00;5.00;;;;;;;;5100576;27;45348;-75
2022/04/04 14:01:59;;;;;;;;;10.33;10.33;;;;;;;;5100671;27;45301;-76
2022/04/04 14:04:25;;;;;;;;;9.33;8.33;;;;;;;;5099516;27;45368;-75
2022/04/04 14:06:50;;;;;;;;;9.67;9.67;;;;;;;;5100371;27;45345;-74
2022/04/04 14:09:16;;;;;;;;;6.33;6.00;;;;;;;;5100426;27;45648;-75
2022/04/04 14:11:42;;;;;;;;;6.00;6.00;;;;;;;;5100533;27;45146;-75
2022/04/04 14:14:10;;;;;;;;;7.33;7.33;;;;;;;;5100583;27;45201;-75
2022/04/04 14:16:37;;;;;;;;;7.33;5.33;;;;;;;;5117868;27;45397;-75
2022/04/04 14:19:03;;;;;;;;;7.33;7.33;;;;;;;;5121043;27;46016;-74
2022/04/04 14:21:28;;;;;;;;;6.67;6.67;;;;;;;;5119382;27;45348;-74
2022/04/04 14:23:53;;;;;;;;;7.00;7.00;;;;;;;;5121230;27;45372;-75
2022/04/04 14:26:19;;;;;;;;;6.67;6.67;;;;;;;;5119464;27;46527;-75
2022/04/04 14:28:44;;;;;;;;;8.33;8.33;;;;;;;;5120260;27;45314;-74
2022/04/04 14:31:10;;;;;;;;;9.00;9.00;;;;;;;;5119204;27;45419;-74